KHKY

Hickory Regional Airport

Hickory, North Carolina, USA
METAR KHKY 231053Z AUTO 20007KT 10SM SCT019 BKN025 OVC035 15/14 A2974 RMK AO2 SLP057 T01500139
Observed Flight Rules
Jan-23 @ 10:53 UTC (51 minutes ago) Marginal Visual Flight Rules
Wind Visibility Clouds
200° at 7 knots 10 miles
  • Scattered at 1,900' AGL
  • Broken at 2,500' AGL
  • Overcast at 3,500' AGL
Temperatures Readings
Current 15°C / 59°F
Dewpoint 14°C / 57°F
Humidity 94%
Altimeter 29.74" Hg
Pressure 1005.7 hPa
Elevation 354
METAR KHKY 231053Z AUTO 20007KT 10SM SCT019 BKN025 OVC035 15/14 A2974 RMK AO2 SLP057 T01500139
Observed Flight Rules
Jan-23 @ 10:53 UTC
(51 minutes ago)
MVFR
Wind Visibility
200° at 7 knots 10 miles
Clouds
  • Scattered at 1,900' AGL
  • Broken at 2,500' AGL
  • Overcast at 3,500' AGL
Temperature Dewpoint
15°C / 59°F 14°C / 57°F
Humidity Altimeter Pressure
94% 29.74" Hg 1005.7 hPa